sensor_id;sensor_type;location;lat;lon;timestamp;pressure;altitude;pressure_sealevel;temperature;humidity
9672;BME280;4874;43.568;27.824;2023-04-03T00:00:39;98264.03;;;9.87;100.00
9672;BME280;4874;43.568;27.824;2023-04-03T00:03:06;98279.03;;;9.78;100.00
9672;BME280;4874;43.568;27.824;2023-04-03T00:05:32;98280.09;;;9.85;100.00
9672;BME280;4874;43.568;27.824;2023-04-03T00:07:59;98286.31;;;9.76;100.00
9672;BME280;4874;43.568;27.824;2023-04-03T00:10:28;98274.47;;;9.63;100.00
9672;BME280;4874;43.568;27.824;2023-04-03T00:12:55;98278.56;;;9.57;100.00
9672;BME280;4874;43.568;27.824;2023-04-03T00:15:21;98286.34;;;9.59;100.00
9672;BME280;4874;43.568;27.824;2023-04-03T00:17:48;98285.03;;;9.55;100.00
9672;BME280;4874;43.568;27.824;2023-04-03T00:20:15;98285.66;;;9.57;100.00
9672;BME280;4874;43.568;27.824;2023-04-03T00:22:41;98227.94;;;9.17;100.00
9672;BME280;4874;43.568;27.824;2023-04-03T00:25:08;98260.00;;;9.31;100.00
9672;BME280;4874;43.568;27.824;2023-04-03T00:27:37;98284.44;;;9.69;100.00
9672;BME280;4874;43.568;27.824;2023-04-03T00:30:05;98286.31;;;9.50;100.00
9672;BME280;4874;43.568;27.824;2023-04-03T00:32:33;98288.59;;;9.45;100.00
9672;BME280;4874;43.568;27.824;2023-04-03T00:35:00;98291.75;;;9.49;100.00
9672;BME280;4874;43.568;27.824;2023-04-03T00:37:26;98287.94;;;9.51;100.00
9672;BME280;4874;43.568;27.824;2023-04-03T00:39:53;98291.31;;;9.36;100.00
9672;BME280;4874;43.568;27.824;2023-04-03T00:42:19;98289.97;;;9.32;100.00
9672;BME280;4874;43.568;27.824;2023-04-03T00:47:16;98290.19;;;9.38;100.00
9672;BME280;4874;43.568;27.824;2023-04-03T00:49:44;98287.16;;;9.33;100.00
9672;BME280;4874;43.568;27.824;2023-04-03T00:52:15;98290.72;;;9.24;100.00
9672;BME280;4874;43.568;27.824;2023-04-03T00:54:45;98294.41;;;9.31;100.00
9672;BME280;4874;43.568;27.824;2023-04-03T00:57:14;98295.78;;;9.35;100.00
9672;BME280;4874;43.568;27.824;2023-04-03T00:59:46;98295.63;;;9.37;100.00
9672;BME280;4874;43.568;27.824;2023-04-03T01:02:15;98289.97;;;9.32;100.00
9672;BME280;4874;43.568;27.824;2023-04-03T01:04:43;98289.88;;;9.41;100.00
9672;BME280;4874;43.568;27.824;2023-04-03T01:07:16;98248.97;;;9.01;100.00
9672;BME280;4874;43.568;27.824;2023-04-03T01:09:44;98292.19;;;9.44;100.00
9672;BME280;4874;43.568;27.824;2023-04-03T01:12:18;98294.94;;;9.35;100.00
9672;BME280;4874;43.568;27.824;2023-04-03T01:14:45;98253.22;;;9.11;100.00
9672;BME280;4874;43.568;27.824;2023-04-03T01:17:31;98294.78;;;9.36;100.00
9672;BME280;4874;43.568;27.824;2023-04-03T01:22:56;98305.31;;;9.28;100.00
9672;BME280;4874;43.568;27.824;2023-04-03T01:25:26;98300.50;;;9.06;100.00
9672;BME280;4874;43.568;27.824;2023-04-03T01:27:53;98297.59;;;9.17;100.00
9672;BME280;4874;43.568;27.824;2023-04-03T01:30:21;98286.69;;;9.38;100.00
9672;BME280;4874;43.568;27.824;2023-04-03T01:32:48;98299.25;;;9.36;100.00
9672;BME280;4874;43.568;27.824;2023-04-03T01:35:15;98296.47;;;9.20;100.00
9672;BME280;4874;43.568;27.824;2023-04-03T01:37:41;98279.22;;;8.98;100.00
9672;BME280;4874;43.568;27.824;2023-04-03T01:40:08;98284.44;;;8.90;100.00
9672;BME280;4874;43.568;27.824;2023-04-03T01:42:35;98283.69;;;8.98;100.00
9672;BME280;4874;43.568;27.824;2023-04-03T01:45:02;98281.09;;;8.88;100.00
9672;BME280;4874;43.568;27.824;2023-04-03T01:47:29;98265.66;;;8.66;100.00
9672;BME280;4874;43.568;27.824;2023-04-03T01:49:56;98291.47;;;8.82;100.00
9672;BME280;4874;43.568;27.824;2023-04-03T01:52:22;98296.69;;;8.91;100.00
9672;BME280;4874;43.568;27.824;2023-04-03T01:54:49;98300.09;;;8.84;100.00
9672;BME280;4874;43.568;27.824;2023-04-03T01:57:16;98304.09;;;8.70;100.00
9672;BME280;4874;43.568;27.824;2023-04-03T01:59:43;98306.28;;;8.75;100.00
9672;BME280;4874;43.568;27.824;2023-04-03T02:02:10;98295.66;;;8.57;100.00
9672;BME280;4874;43.568;27.824;2023-04-03T02:04:38;98303.00;;;8.63;100.00
9672;BME280;4874;43.568;27.824;2023-04-03T02:07:05;98312.78;;;8.80;100.00
9672;BME280;4874;43.568;27.824;2023-04-03T02:09:32;98319.28;;;8.68;100.00
9672;BME280;4874;43.568;27.824;2023-04-03T02:11:58;98317.19;;;8.62;100.00
9672;BME280;4874;43.568;27.824;2023-04-03T02:14:25;98326.50;;;8.66;100.00
9672;BME280;4874;43.568;27.824;2023-04-03T02:16:54;98291.19;;;8.58;100.00
9672;BME280;4874;43.568;27.824;2023-04-03T02:19:20;98328.19;;;8.67;100.00
9672;BME280;4874;43.568;27.824;2023-04-03T02:21:47;98277.13;;;8.57;100.00
9672;BME280;4874;43.568;27.824;2023-04-03T02:24:14;98332.09;;;8.90;100.00
9672;BME280;4874;43.568;27.824;2023-04-03T02:26:41;98328.16;;;9.12;100.00
9672;BME280;4874;43.568;27.824;2023-04-03T02:29:07;98334.66;;;9.17;100.00
9672;BME280;4874;43.568;27.824;2023-04-03T02:31:34;98335.78;;;9.32;100.00
9672;BME280;4874;43.568;27.824;2023-04-03T02:34:01;98337.53;;;9.41;100.00
9672;BME280;4874;43.568;27.824;2023-04-03T02:36:27;98336.19;;;9.37;100.00
9672;BME280;4874;43.568;27.824;2023-04-03T02:38:55;98347.81;;;9.44;100.00
9672;BME280;4874;43.568;27.824;2023-04-03T02:41:22;98309.31;;;9.32;100.00
9672;BME280;4874;43.568;27.824;2023-04-03T02:43:49;98343.69;;;9.60;100.00
9672;BME280;4874;43.568;27.824;2023-04-03T02:46:16;98317.66;;;9.37;100.00
9672;BME280;4874;43.568;27.824;2023-04-03T02:48:43;98349.56;;;9.71;100.00
9672;BME280;4874;43.568;27.824;2023-04-03T02:51:09;98351.16;;;9.64;100.00
9672;BME280;4874;43.568;27.824;2023-04-03T02:53:36;98352.88;;;9.73;100.00
9672;BME280;4874;43.568;27.824;2023-04-03T02:56:03;98348.88;;;9.69;100.00
9672;BME280;4874;43.568;27.824;2023-04-03T02:58:29;98359.63;;;9.68;100.00
9672;BME280;4874;43.568;27.824;2023-04-03T03:00:56;98352.53;;;9.50;100.00
9672;BME280;4874;43.568;27.824;2023-04-03T03:03:23;98354.81;;;9.45;100.00
9672;BME280;4874;43.568;27.824;2023-04-03T03:05:49;98356.16;;;9.49;100.00
9672;BME280;4874;43.568;27.824;2023-04-03T03:08:16;98357.63;;;9.44;100.00
9672;BME280;4874;43.568;27.824;2023-04-03T03:10:46;98345.66;;;9.40;100.00
9672;BME280;4874;43.568;27.824;2023-04-03T03:13:13;98356.09;;;9.41;100.00
9672;BME280;4874;43.568;27.824;2023-04-03T03:15:39;98352.00;;;9.47;100.00
9672;BME280;4874;43.568;27.824;2023-04-03T03:18:06;98353.81;;;9.46;100.00
9672;BME280;4874;43.568;27.824;2023-04-03T03:20:33;98358.44;;;9.44;100.00
9672;BME280;4874;43.568;27.824;2023-04-03T03:23:00;98360.84;;;9.38;100.00
9672;BME280;4874;43.568;27.824;2023-04-03T03:25:26;98360.16;;;9.36;100.00
9672;BME280;4874;43.568;27.824;2023-04-03T03:27:53;98361.84;;;9.37;100.00
9672;BME280;4874;43.568;27.824;2023-04-03T03:30:20;98365.56;;;9.44;100.00
9672;BME280;4874;43.568;27.824;2023-04-03T03:32:47;98240.47;;;8.62;100.00
9672;BME280;4874;43.568;27.824;2023-04-03T03:35:13;98360.94;;;9.28;100.00
9672;BME280;4874;43.568;27.824;2023-04-03T03:37:40;98364.13;;;9.32;100.00
9672;BME280;4874;43.568;27.824;2023-04-03T03:40:07;98368.78;;;9.20;100.00
9672;BME280;4874;43.568;27.824;2023-04-03T03:42:34;98374.38;;;9.17;100.00
9672;BME280;4874;43.568;27.824;2023-04-03T03:45:01;98380.91;;;9.23;100.00
9672;BME280;4874;43.568;27.824;2023-04-03T03:47:27;98387.81;;;9.33;100.00
9672;BME280;4874;43.568;27.824;2023-04-03T03:49:54;98386.59;;;9.28;100.00
9672;BME280;4874;43.568;27.824;2023-04-03T03:52:21;98398.88;;;9.29;100.00
9672;BME280;4874;43.568;27.824;2023-04-03T03:54:48;98361.47;;;9.14;100.00
9672;BME280;4874;43.568;27.824;2023-04-03T03:57:14;98389.69;;;9.41;100.00
9672;BME280;4874;43.568;27.824;2023-04-03T03:59:42;98399.16;;;9.43;100.00
9672;BME280;4874;43.568;27.824;2023-04-03T04:02:11;98406.34;;;9.33;100.00
9672;BME280;4874;43.568;27.824;2023-04-03T04:04:37;98395.38;;;9.28;100.00
9672;BME280;4874;43.568;27.824;2023-04-03T04:07:04;98402.84;;;9.33;100.00
9672;BME280;4874;43.568;27.824;2023-04-03T04:09:31;98406.03;;;9.36;100.00
9672;BME280;4874;43.568;27.824;2023-04-03T04:11:57;98409.22;;;9.40;100.00
9672;BME280;4874;43.568;27.824;2023-04-03T04:14:24;98399.97;;;9.26;100.00
9672;BME280;4874;43.568;27.824;2023-04-03T04:16:50;98409.97;;;9.32;100.00
9672;BME280;4874;43.568;27.824;2023-04-03T04:19:17;98420.78;;;9.21;100.00
9672;BME280;4874;43.568;27.824;2023-04-03T04:21:44;98400.34;;;9.31;100.00
9672;BME280;4874;43.568;27.824;2023-04-03T04:24:11;98393.84;;;9.26;100.00
9672;BME280;4874;43.568;27.824;2023-04-03T04:26:38;98383.41;;;9.42;100.00
9672;BME280;4874;43.568;27.824;2023-04-03T04:29:05;98400.19;;;9.33;100.00
9672;BME280;4874;43.568;27.824;2023-04-03T04:31:31;98403.22;;;9.38;100.00
9672;BME280;4874;43.568;27.824;2023-04-03T04:33:58;98408.38;;;9.39;100.00
9672;BME280;4874;43.568;27.824;2023-04-03T04:36:25;98401.34;;;9.30;100.00
9672;BME280;4874;43.568;27.824;2023-04-03T04:38:51;98419.59;;;9.33;100.00
9672;BME280;4874;43.568;27.824;2023-04-03T04:41:20;98395.03;;;9.14;100.00
9672;BME280;4874;43.568;27.824;2023-04-03T04:43:49;98396.63;;;9.24;100.00
9672;BME280;4874;43.568;27.824;2023-04-03T04:46:16;98418.47;;;9.53;100.00
9672;BME280;4874;43.568;27.824;2023-04-03T04:48:44;98430.44;;;9.58;100.00
9672;BME280;4874;43.568;27.824;2023-04-03T04:51:11;98426.34;;;9.63;100.00
9672;BME280;4874;43.568;27.824;2023-04-03T04:53:38;98422.31;;;9.59;100.00
9672;BME280;4874;43.568;27.824;2023-04-03T04:56:05;98390.22;;;9.44;100.00
9672;BME280;4874;43.568;27.824;2023-04-03T04:58:32;98409.75;;;9.43;100.00
9672;BME280;4874;43.568;27.824;2023-04-03T05:01:07;98430.81;;;9.63;100.00
9672;BME280;4874;43.568;27.824;2023-04-03T05:03:33;98411.78;;;9.67;100.00
9672;BME280;4874;43.568;27.824;2023-04-03T05:06:01;98436.09;;;9.63;100.00
9672;BME280;4874;43.568;27.824;2023-04-03T05:08:27;98405.75;;;9.57;100.00
9672;BME280;4874;43.568;27.824;2023-04-03T05:10:54;98441.16;;;9.91;100.00
9672;BME280;4874;43.568;27.824;2023-04-03T05:13:21;98420.09;;;9.90;100.00
9672;BME280;4874;43.568;27.824;2023-04-03T05:15:48;98438.56;;;9.99;100.00
9672;BME280;4874;43.568;27.824;2023-04-03T05:18:15;98445.72;;;10.16;100.00
9672;BME280;4874;43.568;27.824;2023-04-03T05:20:41;98441.84;;;9.76;100.00
9672;BME280;4874;43.568;27.824;2023-04-03T05:23:10;98441.63;;;10.04;100.00
9672;BME280;4874;43.568;27.824;2023-04-03T05:25:38;98388.78;;;9.68;100.00
9672;BME280;4874;43.568;27.824;2023-04-03T05:28:05;98321.97;;;9.38;100.00
9672;BME280;4874;43.568;27.824;2023-04-03T05:30:32;98433.63;;;9.61;100.00
9672;BME280;4874;43.568;27.824;2023-04-03T05:32:59;98426.03;;;9.66;100.00
9672;BME280;4874;43.568;27.824;2023-04-03T05:35:26;98441.03;;;9.75;100.00
9672;BME280;4874;43.568;27.824;2023-04-03T05:37:52;98437.66;;;9.91;100.00
9672;BME280;4874;43.568;27.824;2023-04-03T05:40:19;98432.94;;;9.77;100.00
9672;BME280;4874;43.568;27.824;2023-04-03T05:42:46;98402.94;;;9.59;100.00
9672;BME280;4874;43.568;27.824;2023-04-03T05:45:13;98452.44;;;9.76;100.00
9672;BME280;4874;43.568;27.824;2023-04-03T05:47:39;98453.50;;;9.83;100.00
9672;BME280;4874;43.568;27.824;2023-04-03T05:50:06;98461.56;;;9.73;100.00
9672;BME280;4874;43.568;27.824;2023-04-03T05:52:36;98457.81;;;10.01;100.00
9672;BME280;4874;43.568;27.824;2023-04-03T05:55:03;98464.28;;;10.16;100.00
9672;BME280;4874;43.568;27.824;2023-04-03T05:57:30;98451.69;;;10.18;100.00
9672;BME280;4874;43.568;27.824;2023-04-03T05:59:57;98435.47;;;10.04;100.00
9672;BME280;4874;43.568;27.824;2023-04-03T06:02:24;98470.28;;;10.44;100.00
9672;BME280;4874;43.568;27.824;2023-04-03T06:04:52;98472.41;;;10.40;100.00
9672;BME280;4874;43.568;27.824;2023-04-03T06:07:22;98455.84;;;10.38;100.00
9672;BME280;4874;43.568;27.824;2023-04-03T06:09:50;98483.34;;;10.63;100.00
9672;BME280;4874;43.568;27.824;2023-04-03T06:12:20;98487.47;;;10.83;100.00
9672;BME280;4874;43.568;27.824;2023-04-03T06:14:47;98487.53;;;10.99;100.00
9672;BME280;4874;43.568;27.824;2023-04-03T06:17:15;98488.84;;;10.95;100.00
9672;BME280;4874;43.568;27.824;2023-04-03T06:19:43;98483.63;;;11.19;100.00
9672;BME280;4874;43.568;27.824;2023-04-03T06:22:10;98493.91;;;11.14;100.00
9672;BME280;4874;43.568;27.824;2023-04-03T06:24:38;98505.03;;;11.51;100.00
9672;BME280;4874;43.568;27.824;2023-04-03T06:27:05;98510.13;;;11.87;100.00
9672;BME280;4874;43.568;27.824;2023-04-03T06:29:31;98515.78;;;11.92;100.00
9672;BME280;4874;43.568;27.824;2023-04-03T06:32:00;98419.09;;;11.35;100.00
9672;BME280;4874;43.568;27.824;2023-04-03T06:34:27;98519.50;;;11.57;100.00
9672;BME280;4874;43.568;27.824;2023-04-03T06:36:54;98515.97;;;11.48;100.00
9672;BME280;4874;43.568;27.824;2023-04-03T06:39:20;98515.16;;;11.98;100.00
9672;BME280;4874;43.568;27.824;2023-04-03T06:41:50;98513.97;;;12.00;100.00
9672;BME280;4874;43.568;27.824;2023-04-03T06:44:18;98507.66;;;12.01;100.00
9672;BME280;4874;43.568;27.824;2023-04-03T06:46:45;98514.16;;;12.15;100.00
9672;BME280;4874;43.568;27.824;2023-04-03T06:49:13;98489.72;;;12.03;100.00
9672;BME280;4874;43.568;27.824;2023-04-03T06:51:40;98515.13;;;12.78;100.00
9672;BME280;4874;43.568;27.824;2023-04-03T06:54:07;98514.97;;;12.71;100.00
9672;BME280;4874;43.568;27.824;2023-04-03T06:56:35;98520.44;;;12.86;100.00
9672;BME280;4874;43.568;27.824;2023-04-03T06:59:02;98519.72;;;13.24;100.00
9672;BME280;4874;43.568;27.824;2023-04-03T07:01:29;98516.41;;;13.53;100.00
9672;BME280;4874;43.568;27.824;2023-04-03T07:03:57;98475.25;;;13.55;100.00
9672;BME280;4874;43.568;27.824;2023-04-03T07:06:24;98452.06;;;13.25;100.00
9672;BME280;4874;43.568;27.824;2023-04-03T07:08:54;98526.00;;;13.70;100.00
9672;BME280;4874;43.568;27.824;2023-04-03T07:11:21;98488.63;;;14.23;100.00
9672;BME280;4874;43.568;27.824;2023-04-03T07:13:49;98529.34;;;14.25;100.00
9672;BME280;4874;43.568;27.824;2023-04-03T07:16:16;98535.94;;;14.60;100.00
9672;BME280;4874;43.568;27.824;2023-04-03T07:18:44;98543.41;;;14.42;100.00
9672;BME280;4874;43.568;27.824;2023-04-03T07:21:11;98532.50;;;14.29;100.00
9672;BME280;4874;43.568;27.824;2023-04-03T07:23:39;98459.81;;;14.18;100.00
9672;BME280;4874;43.568;27.824;2023-04-03T07:26:05;98526.25;;;14.59;100.00
9672;BME280;4874;43.568;27.824;2023-04-03T07:28:33;98515.16;;;14.84;100.00
9672;BME280;4874;43.568;27.824;2023-04-03T07:33:28;98513.16;;;14.49;100.00
9672;BME280;4874;43.568;27.824;2023-04-03T07:35:56;98514.94;;;14.71;100.00
9672;BME280;4874;43.568;27.824;2023-04-03T07:38:22;98529.44;;;14.91;100.00
9672;BME280;4874;43.568;27.824;2023-04-03T07:40:50;98526.00;;;15.20;100.00
9672;BME280;4874;43.568;27.824;2023-04-03T07:43:18;98538.97;;;14.94;100.00
9672;BME280;4874;43.568;27.824;2023-04-03T07:45:46;98542.03;;;14.68;100.00
9672;BME280;4874;43.568;27.824;2023-04-03T07:48:20;98542.91;;;14.46;100.00
9672;BME280;4874;43.568;27.824;2023-04-03T07:50:48;98538.97;;;14.94;100.00
9672;BME280;4874;43.568;27.824;2023-04-03T07:53:15;98535.84;;;14.53;100.00
9672;BME280;4874;43.568;27.824;2023-04-03T07:55:42;98547.13;;;14.78;100.00
9672;BME280;4874;43.568;27.824;2023-04-03T07:58:14;98541.28;;;14.60;100.00
9672;BME280;4874;43.568;27.824;2023-04-03T08:00:42;98546.72;;;15.18;100.00
9672;BME280;4874;43.568;27.824;2023-04-03T08:03:10;98540.34;;;15.04;100.00
9672;BME280;4874;43.568;27.824;2023-04-03T08:05:42;98529.75;;;15.25;100.00
9672;BME280;4874;43.568;27.824;2023-04-03T08:08:11;98534.94;;;15.27;100.00
9672;BME280;4874;43.568;27.824;2023-04-03T08:10:39;98520.41;;;15.44;100.00
9672;BME280;4874;43.568;27.824;2023-04-03T08:13:07;98544.97;;;15.69;100.00
9672;BME280;4874;43.568;27.824;2023-04-03T08:15:35;98558.56;;;15.67;100.00
9672;BME280;4874;43.568;27.824;2023-04-03T08:18:02;98557.19;;;16.07;100.00
9672;BME280;4874;43.568;27.824;2023-04-03T08:20:30;98533.56;;;15.96;100.00
9672;BME280;4874;43.568;27.824;2023-04-03T08:22:56;98572.31;;;16.14;100.00
9672;BME280;4874;43.568;27.824;2023-04-03T08:25:23;98574.63;;;16.17;100.00
9672;BME280;4874;43.568;27.824;2023-04-03T08:27:50;98569.25;;;15.23;100.00
9672;BME280;4874;43.568;27.824;2023-04-03T08:30:17;98558.81;;;16.43;100.00
9672;BME280;4874;43.568;27.824;2023-04-03T08:32:44;98556.34;;;16.06;100.00
9672;BME280;4874;43.568;27.824;2023-04-03T08:35:11;98546.31;;;16.29;100.00
9672;BME280;4874;43.568;27.824;2023-04-03T08:37:38;98542.94;;;16.21;100.00
9672;BME280;4874;43.568;27.824;2023-04-03T08:40:08;98545.66;;;16.27;100.00
9672;BME280;4874;43.568;27.824;2023-04-03T08:43:01;98560.44;;;16.23;100.00
9672;BME280;4874;43.568;27.824;2023-04-03T08:45:53;98551.78;;;15.86;100.00
9672;BME280;4874;43.568;27.824;2023-04-03T08:48:34;98556.91;;;16.37;100.00
9672;BME280;4874;43.568;27.824;2023-04-03T08:51:08;98573.81;;;16.38;100.00
9672;BME280;4874;43.568;27.824;2023-04-03T08:53:42;98549.34;;;16.05;100.00
9672;BME280;4874;43.568;27.824;2023-04-03T08:56:11;98536.03;;;16.12;100.00
9672;BME280;4874;43.568;27.824;2023-04-03T08:58:49;98553.94;;;16.47;100.00
9672;BME280;4874;43.568;27.824;2023-04-03T09:04:01;98542.41;;;16.32;100.00
9672;BME280;4874;43.568;27.824;2023-04-03T09:06:31;98522.97;;;16.44;100.00
9672;BME280;4874;43.568;27.824;2023-04-03T09:14:49;98554.44;;;17.06;100.00
9672;BME280;4874;43.568;27.824;2023-04-03T09:22:53;98545.22;;;17.15;100.00
9672;BME280;4874;43.568;27.824;2023-04-03T09:25:31;98555.34;;;15.43;100.00
9672;BME280;4874;43.568;27.824;2023-04-03T09:28:03;98545.59;;;16.21;100.00
9672;BME280;4874;43.568;27.824;2023-04-03T09:30:30;98551.47;;;15.60;100.00
9672;BME280;4874;43.568;27.824;2023-04-03T09:32:57;98540.38;;;15.33;100.00
9672;BME280;4874;43.568;27.824;2023-04-03T09:35:26;98534.31;;;15.40;100.00
9672;BME280;4874;43.568;27.824;2023-04-03T09:43:34;98521.81;;;16.47;100.00
9672;BME280;4874;43.568;27.824;2023-04-03T09:46:29;98518.75;;;16.14;100.00
9672;BME280;4874;43.568;27.824;2023-04-03T09:49:01;98526.53;;;15.01;100.00
9672;BME280;4874;43.568;27.824;2023-04-03T09:51:34;98529.03;;;15.46;100.00
9672;BME280;4874;43.568;27.824;2023-04-03T09:54:34;98509.50;;;16.17;100.00
9672;BME280;4874;43.568;27.824;2023-04-03T09:57:07;98518.06;;;15.56;100.00
9672;BME280;4874;43.568;27.824;2023-04-03T09:59:36;98505.53;;;15.42;100.00
9672;BME280;4874;43.568;27.824;2023-04-03T10:02:30;98506.34;;;15.92;100.00
9672;BME280;4874;43.568;27.824;2023-04-03T10:04:59;98486.28;;;16.24;100.00
9672;BME280;4874;43.568;27.824;2023-04-03T10:07:37;98513.53;;;15.71;100.00
9672;BME280;4874;43.568;27.824;2023-04-03T10:10:20;98505.53;;;16.13;100.00
9672;BME280;4874;43.568;27.824;2023-04-03T10:13:06;98483.56;;;16.17;100.00
9672;BME280;4874;43.568;27.824;2023-04-03T10:15:45;98498.00;;;16.44;100.00
9672;BME280;4874;43.568;27.824;2023-04-03T10:18:27;98518.59;;;16.86;100.00
9672;BME280;4874;43.568;27.824;2023-04-03T10:21:02;98498.50;;;16.75;100.00
9672;BME280;4874;43.568;27.824;2023-04-03T10:23:55;98512.94;;;17.29;100.00
9672;BME280;4874;43.568;27.824;2023-04-03T10:26:39;98519.72;;;16.98;100.00
9672;BME280;4874;43.568;27.824;2023-04-03T10:34:30;98522.81;;;17.29;100.00
9672;BME280;4874;43.568;27.824;2023-04-03T10:37:24;98505.91;;;17.28;100.00
9672;BME280;4874;43.568;27.824;2023-04-03T10:40:02;98513.00;;;17.08;100.00
9672;BME280;4874;43.568;27.824;2023-04-03T10:42:39;98519.41;;;15.81;100.00
9672;BME280;4874;43.568;27.824;2023-04-03T10:48:18;98500.31;;;16.68;100.00
9672;BME280;4874;43.568;27.824;2023-04-03T10:56:37;98501.19;;;15.91;100.00
9672;BME280;4874;43.568;27.824;2023-04-03T10:59:16;98489.47;;;16.13;100.00
9672;BME280;4874;43.568;27.824;2023-04-03T11:01:49;98485.59;;;16.58;100.00
9672;BME280;4874;43.568;27.824;2023-04-03T11:04:19;98462.94;;;16.88;100.00
9672;BME280;4874;43.568;27.824;2023-04-03T11:09:44;98484.88;;;17.38;100.00
9672;BME280;4874;43.568;27.824;2023-04-03T11:12:17;98483.47;;;17.42;100.00
9672;BME280;4874;43.568;27.824;2023-04-03T11:14:46;98488.16;;;16.93;100.00
9672;BME280;4874;43.568;27.824;2023-04-03T11:20:20;98473.78;;;17.07;100.00
9672;BME280;4874;43.568;27.824;2023-04-03T11:23:04;98477.66;;;17.73;100.00
9672;BME280;4874;43.568;27.824;2023-04-03T11:25:34;98478.16;;;17.49;100.00
9672;BME280;4874;43.568;27.824;2023-04-03T11:28:09;98475.34;;;16.95;100.00
9672;BME280;4874;43.568;27.824;2023-04-03T11:36:20;98441.56;;;17.01;100.00
9672;BME280;4874;43.568;27.824;2023-04-03T11:38:54;98465.69;;;17.01;100.00
9672;BME280;4874;43.568;27.824;2023-04-03T11:41:30;98464.94;;;16.09;100.00
9672;BME280;4874;43.568;27.824;2023-04-03T11:47:05;98478.88;;;16.05;100.00
9672;BME280;4874;43.568;27.824;2023-04-03T12:03:56;98476.47;;;16.10;100.00
9672;BME280;4874;43.568;27.824;2023-04-03T12:09:02;98443.94;;;16.13;100.00
9672;BME280;4874;43.568;27.824;2023-04-03T12:11:42;98461.25;;;16.10;100.00
9672;BME280;4874;43.568;27.824;2023-04-03T12:14:15;98443.66;;;15.80;100.00
9672;BME280;4874;43.568;27.824;2023-04-03T12:16:46;98475.63;;;15.88;100.00
9672;BME280;4874;43.568;27.824;2023-04-03T12:26:47;98474.47;;;15.76;100.00
9672;BME280;4874;43.568;27.824;2023-04-03T12:29:35;98443.22;;;15.62;100.00
9672;BME280;4874;43.568;27.824;2023-04-03T12:44:26;98417.41;;;15.04;100.00
9672;BME280;4874;43.568;27.824;2023-04-03T12:47:20;98454.59;;;15.20;100.00
9672;BME280;4874;43.568;27.824;2023-04-03T12:49:53;98451.31;;;15.04;100.00
9672;BME280;4874;43.568;27.824;2023-04-03T12:52:37;98452.88;;;15.13;100.00
9672;BME280;4874;43.568;27.824;2023-04-03T12:55:19;98416.25;;;15.13;100.00
9672;BME280;4874;43.568;27.824;2023-04-03T12:57:47;98435.34;;;15.10;100.00
9672;BME280;4874;43.568;27.824;2023-04-03T13:02:52;98443.47;;;15.02;100.00
9672;BME280;4874;43.568;27.824;2023-04-03T13:05:21;98413.34;;;14.65;100.00
9672;BME280;4874;43.568;27.824;2023-04-03T13:07:51;98404.22;;;15.03;100.00
9672;BME280;4874;43.568;27.824;2023-04-03T13:10:20;98440.53;;;14.97;100.00
9672;BME280;4874;43.568;27.824;2023-04-03T13:12:58;98445.66;;;15.28;100.00
9672;BME280;4874;43.568;27.824;2023-04-03T13:15:40;98448.00;;;15.16;100.00
9672;BME280;4874;43.568;27.824;2023-04-03T13:18:32;98455.34;;;15.44;100.00
9672;BME280;4874;43.568;27.824;2023-04-03T13:23:30;98464.31;;;15.21;100.00
9672;BME280;4874;43.568;27.824;2023-04-03T13:26:03;98464.84;;;14.88;100.00
9672;BME280;4874;43.568;27.824;2023-04-03T13:28:31;98452.75;;;14.63;100.00
9672;BME280;4874;43.568;27.824;2023-04-03T13:31:04;98457.56;;;14.82;100.00
9672;BME280;4874;43.568;27.824;2023-04-03T13:33:34;98464.56;;;14.83;100.00
9672;BME280;4874;43.568;27.824;2023-04-03T13:38:32;98458.00;;;14.71;100.00
9672;BME280;4874;43.568;27.824;2023-04-03T13:41:04;98458.13;;;14.77;100.00
9672;BME280;4874;43.568;27.824;2023-04-03T13:43:35;98469.84;;;14.91;100.00
9672;BME280;4874;43.568;27.824;2023-04-03T13:48:43;98468.13;;;14.46;100.00
9672;BME280;4874;43.568;27.824;2023-04-03T13:56:26;98473.00;;;14.43;100.00
9672;BME280;4874;43.568;27.824;2023-04-03T13:59:04;98459.31;;;14.60;100.00
9672;BME280;4874;43.568;27.824;2023-04-03T14:01:47;98465.09;;;14.64;100.00
9672;BME280;4874;43.568;27.824;2023-04-03T14:04:25;98461.75;;;14.25;100.00
9672;BME280;4874;43.568;27.824;2023-04-03T14:06:52;98474.28;;;14.47;100.00
9672;BME280;4874;43.568;27.824;2023-04-03T14:09:20;98478.94;;;14.30;100.00
9672;BME280;4874;43.568;27.824;2023-04-03T14:11:53;98448.13;;;13.97;100.00
9672;BME280;4874;43.568;27.824;2023-04-03T14:14:23;98482.72;;;14.13;100.00
9672;BME280;4874;43.568;27.824;2023-04-03T14:16:55;98490.13;;;14.03;100.00
9672;BME280;4874;43.568;27.824;2023-04-03T14:19:33;98483.06;;;13.87;100.00
9672;BME280;4874;43.568;27.824;2023-04-03T14:22:10;98486.69;;;13.94;100.00
9672;BME280;4874;43.568;27.824;2023-04-03T14:24:38;98445.75;;;13.57;100.00
9672;BME280;4874;43.568;27.824;2023-04-03T14:27:15;98494.59;;;13.49;100.00
9672;BME280;4874;43.568;27.824;2023-04-03T14:29:42;98495.25;;;13.51;100.00
9672;BME280;4874;43.568;27.824;2023-04-03T14:32:14;98474.41;;;13.24;100.00
9672;BME280;4874;43.568;27.824;2023-04-03T14:34:42;98500.72;;;13.58;100.00
9672;BME280;4874;43.568;27.824;2023-04-03T14:37:12;98504.16;;;13.74;100.00
9672;BME280;4874;43.568;27.824;2023-04-03T14:39:40;98499.28;;;13.47;100.00
9672;BME280;4874;43.568;27.824;2023-04-03T14:42:12;98443.31;;;13.00;100.00
9672;BME280;4874;43.568;27.824;2023-04-03T14:44:39;98484.09;;;13.01;100.00
9672;BME280;4874;43.568;27.824;2023-04-03T14:47:15;98523.06;;;13.10;100.00
9672;BME280;4874;43.568;27.824;2023-04-03T14:49:55;98516.78;;;13.03;100.00
9672;BME280;4874;43.568;27.824;2023-04-03T14:52:31;98522.72;;;13.13;100.00
9672;BME280;4874;43.568;27.824;2023-04-03T14:54:59;98501.13;;;12.92;100.00
9672;BME280;4874;43.568;27.824;2023-04-03T14:57:28;98523.75;;;13.12;100.00
9672;BME280;4874;43.568;27.824;2023-04-03T14:59:56;98522.28;;;13.02;100.00
9672;BME280;4874;43.568;27.824;2023-04-03T15:02:27;98519.91;;;13.15;100.00
9672;BME280;4874;43.568;27.824;2023-04-03T15:04:56;98518.72;;;13.17;100.00
9672;BME280;4874;43.568;27.824;2023-04-03T15:07:25;98516.44;;;12.90;100.00